Commit Graph

525 Commits

Author SHA1 Message Date
Gary Sharp fb6432a5c8 feature: add email address to organisation address (resolves #156) 2024-12-15 17:08:49 +11:00
Gary Sharp b15917254f clean up: remove unused namespaces 2024-12-14 16:55:37 +11:00
Gary Sharp 8abe31f430 qol: use unified exporting for logs 2024-12-14 16:49:31 +11:00
Gary Sharp a6b9cd1af2 feature: job exporting (resolves #155) 2024-12-12 16:02:12 +11:00
Gary Sharp 90c709c4c1 feature: #158 adds job preference option to include all attachments on lodgment 2024-12-11 17:01:42 +11:00
Gary Sharp 25e3a8e1f1 feature: add select all/none attachments when submitting waranty/repair/insurance job 2024-12-11 15:15:22 +11:00
Gary Sharp 343f20980d qol: impove plugin installation/update api 2024-12-11 15:13:26 +11:00
Gary Sharp f36871abe2 feature: dont disable a computer account if a duplicate, commissioned device exists 2024-12-11 15:11:33 +11:00
Gary Sharp cb354cd13e skip disabling computer account during decommissioning if another active device with the same name exists 2024-10-10 16:17:38 +11:00
Gary Sharp 09f9f2d427 version bump for v2.4 release v2.4.24270.0000 2024-09-26 16:33:55 +10:00
Gary Sharp 390857e065 attempt to preserve IIS bindings so future installations can restore them 2024-09-25 18:16:32 +10:00
Gary Sharp e0d620bf67 feature: lodge insurance 2024-09-25 16:21:51 +10:00
Gary Sharp 78b7b059ea feature: expression helpers - basic email sending 2024-05-16 22:11:10 +10:00
Gary Sharp bb846d14c5 feature: job preferences - On Device Ready For Return expression 2024-05-16 22:09:42 +10:00
Gary Sharp 565e1707ce fix: importing new devices fails for domain joined machines with assigned users 2024-04-08 18:11:03 +10:00
Gary Sharp a675e4a6e9 Feature: Provide CurrentDeviceUserAssignments for use by document expressions 2024-03-28 11:30:39 +11:00
Gary Sharp d8eb8fec83 global support license and validation 2024-01-26 16:23:26 +11:00
Gary Sharp f90eda4101 add pending enrollment identifier 2024-01-24 16:38:50 +11:00
Gary Sharp 37e2e5a08c feature: pending device enrollment approval 2024-01-21 14:06:11 +11:00
Gary Sharp 6af83cbdb2 Merge branch 'device-flags' 2024-01-14 19:13:51 +11:00
Gary Sharp 5f4cb20900 #138 display device flags where appropriate in the UI 2024-01-14 19:13:09 +11:00
Gary Sharp aee467cb53 #138 add/remove individual device flags UI 2024-01-14 18:29:58 +11:00
Gary Sharp 6ce6e2cccf #138 device flags configuration API and UI 2024-01-14 17:59:30 +11:00
Gary Sharp cd858c2215 #138 device flag searching 2024-01-14 17:56:20 +11:00
Gary Sharp 7e07c07171 #138 device flag export service 2024-01-14 17:55:20 +11:00
Gary Sharp 15e2806731 #138 device flag services 2024-01-14 17:54:06 +11:00
Gary Sharp 53baf4eb78 #138 device flag authorization claims 2024-01-13 16:56:23 +11:00
Gary Sharp 8c48ab6ecd #138 device flag models 2024-01-13 16:33:03 +11:00
Gary Sharp 8afe4195a9 #107 allow moving of device OU when changing profile 2024-01-12 12:53:50 +11:00
Gary Sharp dcc4fcb984 #107 support moving profiles devices when changing the organisational unit 2024-01-12 12:52:39 +11:00
Gary Sharp 4631903019 refactor: split windows/mac enrolment 2024-01-12 11:13:48 +11:00
Gary Sharp 85d51c0e45 Fix #141 preserve computer names for non-domain joined devices 2024-01-11 16:27:40 +11:00
Gary Sharp 974a07f3bb show a warning when a device profile OU couuld not be found 2023-11-24 12:58:12 +11:00
Gary Sharp b576aec641 feature: computer name template testing 2023-11-24 11:57:26 +11:00
Gary Sharp a2aaa4c913 #140 make additional fontawesome icons available for user flags 2023-11-12 21:25:16 +11:00
Gary Sharp 318a70d9a3 #140 upgrade fontawesome 2023-11-12 21:24:16 +11:00
Gary Sharp 53e57d4017 feature: user flag assignment exporting 2023-11-11 20:04:52 +11:00
Gary Sharp 143dc1b3e6 bug fix: when exporting devices refresh details before extracting records instead of after 2023-11-11 18:59:59 +11:00
Gary Sharp a4f18d1d49 initial refactor of device export so it can be reused for future exporting 2023-11-11 17:52:24 +11:00
Gary Sharp 46222f2a78 hide decommissioned device profiles and batches by default when updating a devices batch or profile 2023-11-09 20:48:16 +11:00
Gary Sharp 2e091383ec fixes #134 - hide decommissioned device profiles by default 2023-11-09 20:05:25 +11:00
Gary Sharp 7ace4d1c7e add padding row to device batch list to maintain alternating row styles 2023-11-09 19:55:22 +11:00
Gary Sharp f901d45d78 support Firefox checkbox inside anchor element when logging warranty 2023-11-09 14:05:48 +11:00
Gary Sharp 028d1ccc64 remove localhost-only requirement for post upgrade maintenance 2023-11-09 13:43:51 +11:00
Gary Sharp 7b6a44921d plugin library: link to configuration instead of disabled "installed" button 2023-11-09 13:43:09 +11:00
Gary Sharp 23406e5e39 include more inner exception data in system logging 2023-11-08 16:51:08 +11:00
Gary Sharp 83557e6f0c include external job references in detailed search 2023-11-08 16:49:19 +11:00
Gary Sharp 1c90c89158 upgrade ssh.net 2023-11-06 11:25:38 +11:00
Gary Sharp 9924153e82 upgrade dotnet framework 4.5 to 4.6 2023-11-06 11:24:58 +11:00
Gary Sharp 3ec2ea7d37 add job log when re-opening 2023-11-03 15:50:01 +11:00